sensor_id;sensor_type;location;lat;lon;timestamp;P1;durP1;ratioP1;P2;durP2;ratioP2
68449;SDS011;67758;39.572;2.652;2023-10-19T00:01:15;13.55;;;1.70;;
68449;SDS011;67758;39.572;2.652;2023-10-19T00:03:42;12.73;;;1.60;;
68449;SDS011;67758;39.572;2.652;2023-10-19T00:06:15;10.38;;;1.42;;
68449;SDS011;67758;39.572;2.652;2023-10-19T00:08:43;12.95;;;1.42;;
68449;SDS011;67758;39.572;2.652;2023-10-19T00:11:09;7.05;;;1.15;;
68449;SDS011;67758;39.572;2.652;2023-10-19T00:13:56;9.05;;;1.30;;
68449;SDS011;67758;39.572;2.652;2023-10-19T00:16:23;8.48;;;1.10;;
68449;SDS011;67758;39.572;2.652;2023-10-19T00:18:53;10.60;;;1.23;;
68449;SDS011;67758;39.572;2.652;2023-10-19T00:21:20;7.40;;;0.88;;
68449;SDS011;67758;39.572;2.652;2023-10-19T00:23:49;7.38;;;1.10;;
68449;SDS011;67758;39.572;2.652;2023-10-19T00:26:20;11.45;;;1.15;;
68449;SDS011;67758;39.572;2.652;2023-10-19T00:28:46;10.47;;;1.40;;
68449;SDS011;67758;39.572;2.652;2023-10-19T00:31:18;7.15;;;1.13;;
68449;SDS011;67758;39.572;2.652;2023-10-19T00:33:45;7.05;;;1.27;;
68449;SDS011;67758;39.572;2.652;2023-10-19T00:36:11;5.50;;;0.85;;
68449;SDS011;67758;39.572;2.652;2023-10-19T00:38:41;5.68;;;1.08;;
68449;SDS011;67758;39.572;2.652;2023-10-19T00:41:22;6.28;;;0.90;;
68449;SDS011;67758;39.572;2.652;2023-10-19T00:43:53;7.82;;;1.00;;
68449;SDS011;67758;39.572;2.652;2023-10-19T00:46:39;6.47;;;1.20;;
68449;SDS011;67758;39.572;2.652;2023-10-19T00:49:08;5.00;;;0.98;;
68449;SDS011;67758;39.572;2.652;2023-10-19T00:51:51;8.95;;;0.90;;
68449;SDS011;67758;39.572;2.652;2023-10-19T00:57:01;5.38;;;1.10;;
68449;SDS011;67758;39.572;2.652;2023-10-19T00:59:33;5.35;;;0.88;;
68449;SDS011;67758;39.572;2.652;2023-10-19T01:02:08;5.40;;;1.17;;
68449;SDS011;67758;39.572;2.652;2023-10-19T01:04:45;6.70;;;0.85;;
68449;SDS011;67758;39.572;2.652;2023-10-19T01:07:16;8.27;;;0.95;;
68449;SDS011;67758;39.572;2.652;2023-10-19T01:09:56;6.82;;;0.80;;
68449;SDS011;67758;39.572;2.652;2023-10-19T01:12:27;7.32;;;0.77;;
68449;SDS011;67758;39.572;2.652;2023-10-19T01:17:36;9.45;;;1.00;;
68449;SDS011;67758;39.572;2.652;2023-10-19T01:20:06;5.90;;;1.27;;
68449;SDS011;67758;39.572;2.652;2023-10-19T01:28:22;5.22;;;0.88;;
68449;SDS011;67758;39.572;2.652;2023-10-19T01:31:16;7.82;;;1.05;;
68449;SDS011;67758;39.572;2.652;2023-10-19T01:33:59;4.15;;;0.63;;
68449;SDS011;67758;39.572;2.652;2023-10-19T01:36:31;6.18;;;0.73;;
68449;SDS011;67758;39.572;2.652;2023-10-19T01:39:07;7.30;;;0.88;;
68449;SDS011;67758;39.572;2.652;2023-10-19T01:41:36;6.20;;;1.17;;
68449;SDS011;67758;39.572;2.652;2023-10-19T01:44:03;4.70;;;0.80;;
68449;SDS011;67758;39.572;2.652;2023-10-19T01:46:32;7.30;;;0.90;;
68449;SDS011;67758;39.572;2.652;2023-10-19T01:48:59;5.07;;;0.68;;
68449;SDS011;67758;39.572;2.652;2023-10-19T01:51:27;3.80;;;0.60;;
68449;SDS011;67758;39.572;2.652;2023-10-19T01:53:55;8.18;;;0.95;;
68449;SDS011;67758;39.572;2.652;2023-10-19T01:56:21;8.27;;;0.82;;
68449;SDS011;67758;39.572;2.652;2023-10-19T01:58:48;7.57;;;1.00;;
68449;SDS011;67758;39.572;2.652;2023-10-19T02:01:16;9.38;;;1.10;;
68449;SDS011;67758;39.572;2.652;2023-10-19T02:03:46;8.13;;;1.13;;
68449;SDS011;67758;39.572;2.652;2023-10-19T02:06:14;9.05;;;1.00;;
68449;SDS011;67758;39.572;2.652;2023-10-19T02:08:51;7.88;;;1.05;;
68449;SDS011;67758;39.572;2.652;2023-10-19T02:11:26;10.25;;;1.08;;
68449;SDS011;67758;39.572;2.652;2023-10-19T02:13:56;9.13;;;1.13;;
68449;SDS011;67758;39.572;2.652;2023-10-19T02:16:29;9.63;;;1.10;;
68449;SDS011;67758;39.572;2.652;2023-10-19T02:18:54;7.13;;;1.20;;
68449;SDS011;67758;39.572;2.652;2023-10-19T02:21:20;8.52;;;1.10;;
68449;SDS011;67758;39.572;2.652;2023-10-19T02:23:54;8.57;;;1.10;;
68449;SDS011;67758;39.572;2.652;2023-10-19T02:26:20;6.13;;;0.87;;
68449;SDS011;67758;39.572;2.652;2023-10-19T02:28:51;7.15;;;0.85;;
68449;SDS011;67758;39.572;2.652;2023-10-19T02:31:17;5.35;;;1.00;;
68449;SDS011;67758;39.572;2.652;2023-10-19T02:33:45;9.20;;;1.25;;
68449;SDS011;67758;39.572;2.652;2023-10-19T02:36:12;10.37;;;2.13;;
68449;SDS011;67758;39.572;2.652;2023-10-19T02:38:41;10.65;;;1.77;;
68449;SDS011;67758;39.572;2.652;2023-10-19T02:41:09;8.02;;;1.77;;
68449;SDS011;67758;39.572;2.652;2023-10-19T02:43:36;8.30;;;1.40;;
68449;SDS011;67758;39.572;2.652;2023-10-19T02:46:03;8.75;;;0.80;;
68449;SDS011;67758;39.572;2.652;2023-10-19T02:48:29;10.57;;;1.77;;
68449;SDS011;67758;39.572;2.652;2023-10-19T02:50:54;8.65;;;0.90;;
68449;SDS011;67758;39.572;2.652;2023-10-19T02:53:20;9.30;;;1.38;;
68449;SDS011;67758;39.572;2.652;2023-10-19T02:55:46;8.13;;;0.80;;
68449;SDS011;67758;39.572;2.652;2023-10-19T02:58:12;8.88;;;1.08;;
68449;SDS011;67758;39.572;2.652;2023-10-19T03:00:38;10.20;;;1.93;;
68449;SDS011;67758;39.572;2.652;2023-10-19T03:03:05;7.78;;;2.03;;
68449;SDS011;67758;39.572;2.652;2023-10-19T03:05:32;8.02;;;1.52;;
68449;SDS011;67758;39.572;2.652;2023-10-19T03:08:00;9.77;;;1.35;;
68449;SDS011;67758;39.572;2.652;2023-10-19T03:10:31;7.78;;;1.48;;
68449;SDS011;67758;39.572;2.652;2023-10-19T03:13:07;7.60;;;1.10;;
68449;SDS011;67758;39.572;2.652;2023-10-19T03:15:34;9.57;;;1.10;;
68449;SDS011;67758;39.572;2.652;2023-10-19T03:18:01;13.00;;;2.22;;
68449;SDS011;67758;39.572;2.652;2023-10-19T03:20:29;10.63;;;1.20;;
68449;SDS011;67758;39.572;2.652;2023-10-19T03:22:58;9.40;;;1.38;;
68449;SDS011;67758;39.572;2.652;2023-10-19T03:25:26;8.67;;;1.20;;
68449;SDS011;67758;39.572;2.652;2023-10-19T03:28:11;10.32;;;1.27;;
68449;SDS011;67758;39.572;2.652;2023-10-19T03:30:37;9.10;;;1.00;;
68449;SDS011;67758;39.572;2.652;2023-10-19T03:33:06;9.95;;;1.38;;
68449;SDS011;67758;39.572;2.652;2023-10-19T03:35:37;8.00;;;1.10;;
68449;SDS011;67758;39.572;2.652;2023-10-19T03:38:04;11.55;;;1.33;;
68449;SDS011;67758;39.572;2.652;2023-10-19T03:40:44;9.57;;;1.42;;
68449;SDS011;67758;39.572;2.652;2023-10-19T03:43:20;10.80;;;1.25;;
68449;SDS011;67758;39.572;2.652;2023-10-19T03:45:48;11.15;;;0.98;;
68449;SDS011;67758;39.572;2.652;2023-10-19T03:48:18;8.87;;;1.17;;
68449;SDS011;67758;39.572;2.652;2023-10-19T03:50:55;8.00;;;1.15;;
68449;SDS011;67758;39.572;2.652;2023-10-19T03:53:22;8.77;;;1.20;;
68449;SDS011;67758;39.572;2.652;2023-10-19T03:55:48;9.55;;;1.10;;
68449;SDS011;67758;39.572;2.652;2023-10-19T03:58:17;8.68;;;0.98;;
68449;SDS011;67758;39.572;2.652;2023-10-19T04:00:45;8.30;;;1.30;;
68449;SDS011;67758;39.572;2.652;2023-10-19T04:03:17;7.55;;;1.13;;
68449;SDS011;67758;39.572;2.652;2023-10-19T04:05:43;10.32;;;1.20;;
68449;SDS011;67758;39.572;2.652;2023-10-19T04:08:12;9.80;;;1.17;;
68449;SDS011;67758;39.572;2.652;2023-10-19T04:10:41;9.25;;;1.10;;
68449;SDS011;67758;39.572;2.652;2023-10-19T04:13:10;10.03;;;1.00;;
68449;SDS011;67758;39.572;2.652;2023-10-19T04:15:36;10.82;;;1.20;;
68449;SDS011;67758;39.572;2.652;2023-10-19T04:18:03;8.80;;;1.15;;
68449;SDS011;67758;39.572;2.652;2023-10-19T04:20:35;9.50;;;1.47;;
68449;SDS011;67758;39.572;2.652;2023-10-19T04:23:16;8.77;;;1.42;;
68449;SDS011;67758;39.572;2.652;2023-10-19T04:25:41;8.98;;;1.83;;
68449;SDS011;67758;39.572;2.652;2023-10-19T04:28:07;11.93;;;1.80;;
68449;SDS011;67758;39.572;2.652;2023-10-19T04:30:34;9.52;;;1.30;;
68449;SDS011;67758;39.572;2.652;2023-10-19T04:33:02;9.50;;;1.30;;
68449;SDS011;67758;39.572;2.652;2023-10-19T04:35:27;7.03;;;0.70;;
68449;SDS011;67758;39.572;2.652;2023-10-19T04:37:59;12.55;;;1.20;;
68449;SDS011;67758;39.572;2.652;2023-10-19T04:40:25;9.40;;;1.00;;
68449;SDS011;67758;39.572;2.652;2023-10-19T04:42:52;8.95;;;1.08;;
68449;SDS011;67758;39.572;2.652;2023-10-19T04:45:18;10.30;;;1.10;;
68449;SDS011;67758;39.572;2.652;2023-10-19T04:47:44;8.95;;;1.38;;
68449;SDS011;67758;39.572;2.652;2023-10-19T04:50:11;7.00;;;1.10;;
68449;SDS011;67758;39.572;2.652;2023-10-19T04:52:37;8.52;;;0.80;;
68449;SDS011;67758;39.572;2.652;2023-10-19T04:55:04;7.93;;;0.90;;
68449;SDS011;67758;39.572;2.652;2023-10-19T04:57:30;6.88;;;0.82;;
68449;SDS011;67758;39.572;2.652;2023-10-19T04:59:56;9.87;;;1.03;;
68449;SDS011;67758;39.572;2.652;2023-10-19T05:02:22;7.43;;;1.13;;
68449;SDS011;67758;39.572;2.652;2023-10-19T05:04:48;7.30;;;1.00;;
68449;SDS011;67758;39.572;2.652;2023-10-19T05:07:19;10.52;;;1.42;;
68449;SDS011;67758;39.572;2.652;2023-10-19T05:09:47;9.88;;;1.20;;
68449;SDS011;67758;39.572;2.652;2023-10-19T05:12:13;7.72;;;1.05;;
68449;SDS011;67758;39.572;2.652;2023-10-19T05:14:39;6.55;;;1.20;;
68449;SDS011;67758;39.572;2.652;2023-10-19T05:17:07;10.40;;;1.42;;
68449;SDS011;67758;39.572;2.652;2023-10-19T05:19:34;6.53;;;0.70;;
68449;SDS011;67758;39.572;2.652;2023-10-19T05:22:02;6.05;;;0.77;;
68449;SDS011;67758;39.572;2.652;2023-10-19T05:24:28;10.75;;;1.17;;
68449;SDS011;67758;39.572;2.652;2023-10-19T05:26:55;11.57;;;1.23;;
68449;SDS011;67758;39.572;2.652;2023-10-19T05:29:21;7.78;;;1.10;;
68449;SDS011;67758;39.572;2.652;2023-10-19T05:31:47;5.95;;;0.70;;
68449;SDS011;67758;39.572;2.652;2023-10-19T05:34:22;11.52;;;0.90;;
68449;SDS011;67758;39.572;2.652;2023-10-19T05:36:49;10.05;;;1.27;;
68449;SDS011;67758;39.572;2.652;2023-10-19T05:39:15;8.82;;;1.55;;
68449;SDS011;67758;39.572;2.652;2023-10-19T05:41:41;10.57;;;1.60;;
68449;SDS011;67758;39.572;2.652;2023-10-19T05:44:09;7.50;;;0.93;;
68449;SDS011;67758;39.572;2.652;2023-10-19T05:46:35;10.95;;;1.00;;
68449;SDS011;67758;39.572;2.652;2023-10-19T05:49:06;7.05;;;0.90;;
68449;SDS011;67758;39.572;2.652;2023-10-19T05:51:31;9.43;;;1.10;;
68449;SDS011;67758;39.572;2.652;2023-10-19T05:53:58;5.97;;;0.70;;
68449;SDS011;67758;39.572;2.652;2023-10-19T05:56:28;6.70;;;0.90;;
68449;SDS011;67758;39.572;2.652;2023-10-19T05:58:59;13.30;;;1.08;;
68449;SDS011;67758;39.572;2.652;2023-10-19T06:01:26;11.23;;;1.88;;
68449;SDS011;67758;39.572;2.652;2023-10-19T06:03:54;8.60;;;1.50;;
68449;SDS011;67758;39.572;2.652;2023-10-19T06:06:22;8.18;;;1.00;;
68449;SDS011;67758;39.572;2.652;2023-10-19T06:08:48;10.50;;;1.10;;
68449;SDS011;67758;39.572;2.652;2023-10-19T06:11:18;12.50;;;1.00;;
68449;SDS011;67758;39.572;2.652;2023-10-19T06:13:45;9.27;;;0.88;;
68449;SDS011;67758;39.572;2.652;2023-10-19T06:16:14;7.07;;;1.40;;
68449;SDS011;67758;39.572;2.652;2023-10-19T06:18:40;8.05;;;0.90;;
68449;SDS011;67758;39.572;2.652;2023-10-19T06:21:05;10.10;;;1.20;;
68449;SDS011;67758;39.572;2.652;2023-10-19T06:23:31;9.85;;;1.73;;
68449;SDS011;67758;39.572;2.652;2023-10-19T06:25:57;7.70;;;1.27;;
68449;SDS011;67758;39.572;2.652;2023-10-19T06:28:25;10.93;;;1.17;;
68449;SDS011;67758;39.572;2.652;2023-10-19T06:30:50;15.02;;;1.40;;
68449;SDS011;67758;39.572;2.652;2023-10-19T06:33:19;11.90;;;0.90;;
68449;SDS011;67758;39.572;2.652;2023-10-19T06:35:48;11.00;;;1.10;;
68449;SDS011;67758;39.572;2.652;2023-10-19T06:38:13;7.85;;;0.70;;
68449;SDS011;67758;39.572;2.652;2023-10-19T06:40:40;9.90;;;1.00;;
68449;SDS011;67758;39.572;2.652;2023-10-19T06:43:05;8.48;;;1.08;;
68449;SDS011;67758;39.572;2.652;2023-10-19T06:45:31;9.20;;;1.00;;
68449;SDS011;67758;39.572;2.652;2023-10-19T06:47:59;7.10;;;0.90;;
68449;SDS011;67758;39.572;2.652;2023-10-19T06:50:25;11.07;;;1.30;;
68449;SDS011;67758;39.572;2.652;2023-10-19T06:52:52;12.82;;;1.50;;
68449;SDS011;67758;39.572;2.652;2023-10-19T06:55:19;10.95;;;0.80;;
68449;SDS011;67758;39.572;2.652;2023-10-19T06:57:47;9.03;;;0.97;;
68449;SDS011;67758;39.572;2.652;2023-10-19T07:00:14;6.28;;;0.80;;
68449;SDS011;67758;39.572;2.652;2023-10-19T07:02:45;10.93;;;1.00;;
68449;SDS011;67758;39.572;2.652;2023-10-19T07:05:18;8.98;;;1.00;;
68449;SDS011;67758;39.572;2.652;2023-10-19T07:07:47;8.85;;;1.00;;
68449;SDS011;67758;39.572;2.652;2023-10-19T07:10:17;11.13;;;1.40;;
68449;SDS011;67758;39.572;2.652;2023-10-19T07:12:44;8.02;;;1.10;;
68449;SDS011;67758;39.572;2.652;2023-10-19T07:15:12;8.15;;;1.00;;
68449;SDS011;67758;39.572;2.652;2023-10-19T07:17:44;10.93;;;1.65;;
68449;SDS011;67758;39.572;2.652;2023-10-19T07:20:14;9.40;;;1.38;;
68449;SDS011;67758;39.572;2.652;2023-10-19T07:23:03;8.00;;;1.23;;
68449;SDS011;67758;39.572;2.652;2023-10-19T07:25:43;6.53;;;1.02;;
68449;SDS011;67758;39.572;2.652;2023-10-19T07:28:13;6.50;;;1.00;;
68449;SDS011;67758;39.572;2.652;2023-10-19T07:30:41;5.32;;;1.13;;
68449;SDS011;67758;39.572;2.652;2023-10-19T07:33:10;9.57;;;2.15;;
68449;SDS011;67758;39.572;2.652;2023-10-19T07:35:42;7.00;;;0.83;;
68449;SDS011;67758;39.572;2.652;2023-10-19T07:38:09;8.63;;;1.30;;
68449;SDS011;67758;39.572;2.652;2023-10-19T07:40:35;8.77;;;1.10;;
68449;SDS011;67758;39.572;2.652;2023-10-19T07:43:01;8.13;;;1.35;;
68449;SDS011;67758;39.572;2.652;2023-10-19T07:45:29;9.13;;;1.30;;
68449;SDS011;67758;39.572;2.652;2023-10-19T07:47:56;10.00;;;1.17;;
68449;SDS011;67758;39.572;2.652;2023-10-19T07:50:22;7.65;;;1.08;;
68449;SDS011;67758;39.572;2.652;2023-10-19T07:52:51;9.43;;;1.15;;
68449;SDS011;67758;39.572;2.652;2023-10-19T07:55:19;7.30;;;1.07;;
68449;SDS011;67758;39.572;2.652;2023-10-19T07:57:51;7.65;;;0.88;;
68449;SDS011;67758;39.572;2.652;2023-10-19T08:00:18;6.68;;;0.82;;
68449;SDS011;67758;39.572;2.652;2023-10-19T08:02:45;9.23;;;1.33;;
68449;SDS011;67758;39.572;2.652;2023-10-19T08:05:11;6.38;;;0.80;;
68449;SDS011;67758;39.572;2.652;2023-10-19T08:07:39;11.27;;;1.20;;
68449;SDS011;67758;39.572;2.652;2023-10-19T08:10:08;7.40;;;1.08;;
68449;SDS011;67758;39.572;2.652;2023-10-19T08:12:35;10.20;;;1.10;;
68449;SDS011;67758;39.572;2.652;2023-10-19T08:15:02;6.97;;;1.17;;
68449;SDS011;67758;39.572;2.652;2023-10-19T08:17:29;7.65;;;1.75;;
68449;SDS011;67758;39.572;2.652;2023-10-19T08:19:55;7.97;;;0.90;;
68449;SDS011;67758;39.572;2.652;2023-10-19T08:22:22;11.02;;;1.40;;
68449;SDS011;67758;39.572;2.652;2023-10-19T08:24:49;12.55;;;1.20;;
68449;SDS011;67758;39.572;2.652;2023-10-19T08:27:15;7.78;;;1.13;;
68449;SDS011;67758;39.572;2.652;2023-10-19T08:29:42;12.18;;;1.75;;
68449;SDS011;67758;39.572;2.652;2023-10-19T08:32:08;12.13;;;1.37;;
68449;SDS011;67758;39.572;2.652;2023-10-19T08:34:34;7.20;;;1.17;;
68449;SDS011;67758;39.572;2.652;2023-10-19T08:37:01;8.15;;;1.70;;
68449;SDS011;67758;39.572;2.652;2023-10-19T08:39:30;7.78;;;1.08;;
68449;SDS011;67758;39.572;2.652;2023-10-19T08:42:03;5.30;;;1.05;;
68449;SDS011;67758;39.572;2.652;2023-10-19T08:44:32;11.88;;;1.48;;
68449;SDS011;67758;39.572;2.652;2023-10-19T08:46:58;6.70;;;1.27;;
68449;SDS011;67758;39.572;2.652;2023-10-19T08:49:27;8.23;;;1.67;;
68449;SDS011;67758;39.572;2.652;2023-10-19T08:51:54;7.45;;;1.02;;
68449;SDS011;67758;39.572;2.652;2023-10-19T08:54:24;3.85;;;0.52;;
68449;SDS011;67758;39.572;2.652;2023-10-19T08:56:51;5.53;;;0.80;;
68449;SDS011;67758;39.572;2.652;2023-10-19T08:59:17;6.53;;;0.75;;
68449;SDS011;67758;39.572;2.652;2023-10-19T09:01:43;4.63;;;0.70;;
68449;SDS011;67758;39.572;2.652;2023-10-19T09:04:12;6.13;;;1.00;;
68449;SDS011;67758;39.572;2.652;2023-10-19T09:06:41;6.35;;;0.90;;
68449;SDS011;67758;39.572;2.652;2023-10-19T09:09:08;5.85;;;0.85;;
68449;SDS011;67758;39.572;2.652;2023-10-19T09:11:45;8.35;;;1.05;;
68449;SDS011;67758;39.572;2.652;2023-10-19T09:14:12;6.47;;;1.15;;
68449;SDS011;67758;39.572;2.652;2023-10-19T09:16:38;5.27;;;1.07;;
68449;SDS011;67758;39.572;2.652;2023-10-19T09:19:38;6.85;;;0.82;;
68449;SDS011;67758;39.572;2.652;2023-10-19T09:22:12;8.48;;;1.33;;
68449;SDS011;67758;39.572;2.652;2023-10-19T09:24:44;5.45;;;0.70;;
68449;SDS011;67758;39.572;2.652;2023-10-19T09:27:11;6.07;;;0.52;;
68449;SDS011;67758;39.572;2.652;2023-10-19T09:29:38;6.05;;;0.93;;
68449;SDS011;67758;39.572;2.652;2023-10-19T09:32:06;8.23;;;1.10;;
68449;SDS011;67758;39.572;2.652;2023-10-19T09:34:35;10.30;;;1.45;;
68449;SDS011;67758;39.572;2.652;2023-10-19T09:37:02;6.50;;;0.85;;
68449;SDS011;67758;39.572;2.652;2023-10-19T09:39:32;8.73;;;1.38;;
68449;SDS011;67758;39.572;2.652;2023-10-19T09:42:05;6.70;;;1.30;;
68449;SDS011;67758;39.572;2.652;2023-10-19T09:44:42;6.38;;;1.50;;
68449;SDS011;67758;39.572;2.652;2023-10-19T09:47:13;8.50;;;1.15;;
68449;SDS011;67758;39.572;2.652;2023-10-19T09:49:49;8.10;;;1.40;;
68449;SDS011;67758;39.572;2.652;2023-10-19T09:52:15;9.52;;;1.45;;
68449;SDS011;67758;39.572;2.652;2023-10-19T09:57:14;4.75;;;1.20;;
68449;SDS011;67758;39.572;2.652;2023-10-19T09:59:46;5.95;;;1.10;;
68449;SDS011;67758;39.572;2.652;2023-10-19T10:02:16;6.38;;;1.75;;
68449;SDS011;67758;39.572;2.652;2023-10-19T10:04:43;14.63;;;2.45;;
68449;SDS011;67758;39.572;2.652;2023-10-19T10:07:14;9.07;;;1.30;;
68449;SDS011;67758;39.572;2.652;2023-10-19T10:09:41;8.25;;;1.55;;
68449;SDS011;67758;39.572;2.652;2023-10-19T10:14:59;5.40;;;1.30;;
68449;SDS011;67758;39.572;2.652;2023-10-19T10:17:27;8.95;;;2.10;;
68449;SDS011;67758;39.572;2.652;2023-10-19T10:19:54;8.63;;;1.83;;
68449;SDS011;67758;39.572;2.652;2023-10-19T10:25:49;9.90;;;2.28;;
68449;SDS011;67758;39.572;2.652;2023-10-19T10:28:19;8.80;;;2.28;;
68449;SDS011;67758;39.572;2.652;2023-10-19T10:33:39;8.17;;;2.37;;
68449;SDS011;67758;39.572;2.652;2023-10-19T10:36:12;9.27;;;2.42;;
68449;SDS011;67758;39.572;2.652;2023-10-19T10:38:39;9.40;;;2.40;;
68449;SDS011;67758;39.572;2.652;2023-10-19T10:41:05;5.90;;;2.08;;
68449;SDS011;67758;39.572;2.652;2023-10-19T10:43:47;7.75;;;2.22;;
68449;SDS011;67758;39.572;2.652;2023-10-19T10:46:18;17.70;;;2.13;;
68449;SDS011;67758;39.572;2.652;2023-10-19T10:48:46;9.48;;;1.65;;
68449;SDS011;67758;39.572;2.652;2023-10-19T10:51:23;9.18;;;2.28;;
68449;SDS011;67758;39.572;2.652;2023-10-19T10:53:53;7.28;;;1.80;;
68449;SDS011;67758;39.572;2.652;2023-10-19T10:56:23;8.68;;;1.92;;
68449;SDS011;67758;39.572;2.652;2023-10-19T10:58:49;8.73;;;2.50;;
68449;SDS011;67758;39.572;2.652;2023-10-19T11:01:27;9.45;;;1.92;;
68449;SDS011;67758;39.572;2.652;2023-10-19T11:04:05;9.32;;;2.20;;
68449;SDS011;67758;39.572;2.652;2023-10-19T11:06:32;8.98;;;2.45;;
68449;SDS011;67758;39.572;2.652;2023-10-19T11:08:58;13.27;;;2.90;;
68449;SDS011;67758;39.572;2.652;2023-10-19T11:11:23;9.43;;;2.60;;
68449;SDS011;67758;39.572;2.652;2023-10-19T11:13:49;14.90;;;3.60;;
68449;SDS011;67758;39.572;2.652;2023-10-19T11:16:21;10.47;;;3.07;;
68449;SDS011;67758;39.572;2.652;2023-10-19T11:18:48;12.63;;;3.38;;
68449;SDS011;67758;39.572;2.652;2023-10-19T11:21:15;12.15;;;2.90;;
68449;SDS011;67758;39.572;2.652;2023-10-19T11:23:44;9.43;;;3.17;;
68449;SDS011;67758;39.572;2.652;2023-10-19T11:26:12;10.00;;;3.30;;
68449;SDS011;67758;39.572;2.652;2023-10-19T11:28:39;10.30;;;3.63;;
68449;SDS011;67758;39.572;2.652;2023-10-19T11:31:22;13.27;;;3.50;;
68449;SDS011;67758;39.572;2.652;2023-10-19T11:33:49;15.55;;;4.18;;
68449;SDS011;67758;39.572;2.652;2023-10-19T11:36:18;14.20;;;3.85;;
68449;SDS011;67758;39.572;2.652;2023-10-19T11:38:49;13.35;;;3.90;;
68449;SDS011;67758;39.572;2.652;2023-10-19T11:41:19;16.73;;;3.43;;
68449;SDS011;67758;39.572;2.652;2023-10-19T11:43:45;16.13;;;3.00;;
68449;SDS011;67758;39.572;2.652;2023-10-19T11:46:13;16.80;;;3.28;;
68449;SDS011;67758;39.572;2.652;2023-10-19T11:48:48;16.40;;;3.60;;
68449;SDS011;67758;39.572;2.652;2023-10-19T11:51:13;15.10;;;3.70;;
68449;SDS011;67758;39.572;2.652;2023-10-19T11:53:40;9.48;;;3.15;;
68449;SDS011;67758;39.572;2.652;2023-10-19T11:56:09;10.18;;;3.05;;
68449;SDS011;67758;39.572;2.652;2023-10-19T11:58:38;12.75;;;2.58;;
68449;SDS011;67758;39.572;2.652;2023-10-19T12:01:06;8.50;;;2.83;;
68449;SDS011;67758;39.572;2.652;2023-10-19T12:03:40;9.27;;;3.42;;
68449;SDS011;67758;39.572;2.652;2023-10-19T12:06:07;13.98;;;3.20;;
68449;SDS011;67758;39.572;2.652;2023-10-19T12:08:37;10.18;;;3.20;;
68449;SDS011;67758;39.572;2.652;2023-10-19T12:11:07;12.55;;;3.22;;
68449;SDS011;67758;39.572;2.652;2023-10-19T12:13:43;16.33;;;3.17;;
68449;SDS011;67758;39.572;2.652;2023-10-19T12:16:10;15.27;;;3.85;;
68449;SDS011;67758;39.572;2.652;2023-10-19T12:18:41;13.20;;;3.33;;
68449;SDS011;67758;39.572;2.652;2023-10-19T12:21:09;15.95;;;3.65;;
68449;SDS011;67758;39.572;2.652;2023-10-19T12:23:42;23.48;;;4.13;;
68449;SDS011;67758;39.572;2.652;2023-10-19T12:26:08;27.23;;;7.57;;
68449;SDS011;67758;39.572;2.652;2023-10-19T12:28:37;19.52;;;3.92;;
68449;SDS011;67758;39.572;2.652;2023-10-19T12:31:03;13.77;;;3.72;;
68449;SDS011;67758;39.572;2.652;2023-10-19T12:33:30;12.68;;;3.40;;
68449;SDS011;67758;39.572;2.652;2023-10-19T12:35:56;17.58;;;3.30;;
68449;SDS011;67758;39.572;2.652;2023-10-19T12:38:22;8.20;;;2.10;;
68449;SDS011;67758;39.572;2.652;2023-10-19T12:40:49;14.43;;;2.72;;
68449;SDS011;67758;39.572;2.652;2023-10-19T12:43:19;12.52;;;2.33;;
68449;SDS011;67758;39.572;2.652;2023-10-19T12:45:47;15.77;;;2.67;;
68449;SDS011;67758;39.572;2.652;2023-10-19T12:48:16;16.60;;;2.87;;
68449;SDS011;67758;39.572;2.652;2023-10-19T12:50:42;12.45;;;3.38;;
68449;SDS011;67758;39.572;2.652;2023-10-19T12:53:08;15.60;;;3.13;;
68449;SDS011;67758;39.572;2.652;2023-10-19T12:55:34;17.08;;;2.72;;
68449;SDS011;67758;39.572;2.652;2023-10-19T12:58:03;15.27;;;2.67;;
68449;SDS011;67758;39.572;2.652;2023-10-19T13:00:33;10.73;;;2.17;;
68449;SDS011;67758;39.572;2.652;2023-10-19T13:03:04;12.23;;;2.50;;
68449;SDS011;67758;39.572;2.652;2023-10-19T13:05:34;12.45;;;2.78;;
68449;SDS011;67758;39.572;2.652;2023-10-19T13:08:07;12.07;;;2.95;;
68449;SDS011;67758;39.572;2.652;2023-10-19T13:10:34;8.07;;;2.07;;
68449;SDS011;67758;39.572;2.652;2023-10-19T13:13:03;8.35;;;1.98;;
68449;SDS011;67758;39.572;2.652;2023-10-19T13:15:31;12.45;;;2.20;;
68449;SDS011;67758;39.572;2.652;2023-10-19T13:18:05;14.40;;;3.35;;
68449;SDS011;67758;39.572;2.652;2023-10-19T13:20:32;11.18;;;2.45;;
68449;SDS011;67758;39.572;2.652;2023-10-19T13:23:05;18.33;;;3.10;;
68449;SDS011;67758;39.572;2.652;2023-10-19T13:25:37;20.98;;;4.40;;
68449;SDS011;67758;39.572;2.652;2023-10-19T13:28:15;22.48;;;5.22;;
68449;SDS011;67758;39.572;2.652;2023-10-19T13:30:46;15.60;;;2.55;;
68449;SDS011;67758;39.572;2.652;2023-10-19T13:33:13;12.45;;;2.92;;
68449;SDS011;67758;39.572;2.652;2023-10-19T13:35:40;18.40;;;3.53;;
68449;SDS011;67758;39.572;2.652;2023-10-19T13:38:10;21.98;;;3.13;;
68449;SDS011;67758;39.572;2.652;2023-10-19T13:40:37;21.65;;;3.67;;
68449;SDS011;67758;39.572;2.652;2023-10-19T13:43:03;9.98;;;1.88;;
68449;SDS011;67758;39.572;2.652;2023-10-19T13:45:32;14.88;;;2.90;;
68449;SDS011;67758;39.572;2.652;2023-10-19T13:48:04;11.93;;;2.47;;
68449;SDS011;67758;39.572;2.652;2023-10-19T13:50:31;13.80;;;2.42;;
68449;SDS011;67758;39.572;2.652;2023-10-19T13:52:59;17.88;;;2.80;;
68449;SDS011;67758;39.572;2.652;2023-10-19T13:55:26;16.42;;;3.13;;
68449;SDS011;67758;39.572;2.652;2023-10-19T13:57:52;16.27;;;2.65;;
68449;SDS011;67758;39.572;2.652;2023-10-19T14:00:19;11.20;;;1.80;;
68449;SDS011;67758;39.572;2.652;2023-10-19T14:03:06;12.98;;;2.60;;
68449;SDS011;67758;39.572;2.652;2023-10-19T14:05:36;14.05;;;2.70;;
68449;SDS011;67758;39.572;2.652;2023-10-19T14:08:06;16.25;;;2.20;;
68449;SDS011;67758;39.572;2.652;2023-10-19T14:10:32;13.50;;;2.58;;
68449;SDS011;67758;39.572;2.652;2023-10-19T14:13:01;16.77;;;3.40;;
68449;SDS011;67758;39.572;2.652;2023-10-19T14:15:27;15.60;;;3.03;;
68449;SDS011;67758;39.572;2.652;2023-10-19T14:17:55;19.90;;;3.50;;
68449;SDS011;67758;39.572;2.652;2023-10-19T14:20:23;17.52;;;2.78;;
68449;SDS011;67758;39.572;2.652;2023-10-19T14:22:49;19.98;;;3.42;;
68449;SDS011;67758;39.572;2.652;2023-10-19T14:25:15;15.17;;;2.60;;
68449;SDS011;67758;39.572;2.652;2023-10-19T14:27:45;17.25;;;2.60;;
68449;SDS011;67758;39.572;2.652;2023-10-19T14:30:21;18.88;;;2.83;;
68449;SDS011;67758;39.572;2.652;2023-10-19T14:32:48;18.00;;;3.47;;
68449;SDS011;67758;39.572;2.652;2023-10-19T14:35:15;17.42;;;2.47;;
68449;SDS011;67758;39.572;2.652;2023-10-19T14:37:42;22.75;;;3.30;;
68449;SDS011;67758;39.572;2.652;2023-10-19T14:40:16;20.65;;;2.95;;
68449;SDS011;67758;39.572;2.652;2023-10-19T14:42:46;15.55;;;2.90;;
68449;SDS011;67758;39.572;2.652;2023-10-19T14:45:17;13.52;;;2.17;;
68449;SDS011;67758;39.572;2.652;2023-10-19T14:47:46;13.38;;;3.22;;
68449;SDS011;67758;39.572;2.652;2023-10-19T14:50:13;13.90;;;2.83;;
68449;SDS011;67758;39.572;2.652;2023-10-19T14:52:40;13.98;;;2.33;;
68449;SDS011;67758;39.572;2.652;2023-10-19T14:55:07;14.10;;;2.63;;
68449;SDS011;67758;39.572;2.652;2023-10-19T14:57:34;16.75;;;2.67;;
68449;SDS011;67758;39.572;2.652;2023-10-19T15:00:02;13.88;;;2.00;;
68449;SDS011;67758;39.572;2.652;2023-10-19T15:02:49;13.43;;;2.23;;
68449;SDS011;67758;39.572;2.652;2023-10-19T15:05:16;17.95;;;2.45;;
68449;SDS011;67758;39.572;2.652;2023-10-19T15:07:43;20.35;;;2.40;;
68449;SDS011;67758;39.572;2.652;2023-10-19T15:10:10;14.32;;;2.42;;
68449;SDS011;67758;39.572;2.652;2023-10-19T15:12:38;12.70;;;2.67;;
68449;SDS011;67758;39.572;2.652;2023-10-19T15:15:09;12.40;;;2.33;;
68449;SDS011;67758;39.572;2.652;2023-10-19T15:17:42;14.90;;;2.83;;